Search for airport 
image banner adimage banner adimage banner ad
image banner ad

4PS2 - Sci Graterford

Located in Graterford, United States

ICAO - 4PS2, IATA -

Data provided by Airmate  

General information

Coordinates: N40°13'56" W75°26'11"
Elevation is 283 feet MSL.
 
View others Airports in Pennsylvania

Operational data

Special qualification required
Current time UTC:
Current local time:
Weather at : KPTW - Heritage Field ( 10 km )
METAR: KPTW 091654Z AUTO 23007KT 10SM OVC060 12/03 A3007 RMK AO2 SLP179 T01170028
View NOTAMs / SUP AIP / TFR affecting this airport [VIEW]
Communications frequencies: [VIEW]

Runways:

Airport contact information

Address: Graterford United States

Satellite view of 4PS2